sensor_id;sensor_type;location;lat;lon;timestamp;pressure;altitude;pressure_sealevel;temperature;humidity
38630;BME280;24384;51.988;4.644;2023-02-20T00:02:02;102639.66;;;5.58;88.56
38630;BME280;24384;51.988;4.644;2023-02-20T00:04:28;102635.34;;;5.62;88.64
38630;BME280;24384;51.988;4.644;2023-02-20T00:06:53;102632.69;;;5.59;89.22
38630;BME280;24384;51.988;4.644;2023-02-20T00:09:18;102623.03;;;5.56;88.90
38630;BME280;24384;51.988;4.644;2023-02-20T00:11:45;102623.88;;;5.53;89.38
38630;BME280;24384;51.988;4.644;2023-02-20T00:14:11;102621.25;;;5.53;89.17
38630;BME280;24384;51.988;4.644;2023-02-20T00:16:37;102621.22;;;5.50;89.19
38630;BME280;24384;51.988;4.644;2023-02-20T00:19:02;102618.53;;;5.46;89.61
38630;BME280;24384;51.988;4.644;2023-02-20T00:21:27;102617.63;;;5.45;90.32
38630;BME280;24384;51.988;4.644;2023-02-20T00:23:53;102618.50;;;5.44;89.91
38630;BME280;24384;51.988;4.644;2023-02-20T00:26:18;102608.88;;;5.43;90.06
38630;BME280;24384;51.988;4.644;2023-02-20T00:28:43;102602.66;;;5.36;89.95
38630;BME280;24384;51.988;4.644;2023-02-20T00:31:13;102599.09;;;5.33;90.36
38630;BME280;24384;51.988;4.644;2023-02-20T00:33:39;102593.88;;;5.33;90.71
38630;BME280;24384;51.988;4.644;2023-02-20T00:36:04;102587.75;;;5.32;90.80
38630;BME280;24384;51.988;4.644;2023-02-20T00:38:30;102585.13;;;5.31;90.92
38630;BME280;24384;51.988;4.644;2023-02-20T00:40:56;102586.91;;;5.33;90.86
38630;BME280;24384;51.988;4.644;2023-02-20T00:43:21;102585.16;;;5.34;90.94
38630;BME280;24384;51.988;4.644;2023-02-20T00:45:47;102577.34;;;5.35;91.61
38630;BME280;24384;51.988;4.644;2023-02-20T00:48:12;102591.25;;;5.33;92.07
38630;BME280;24384;51.988;4.644;2023-02-20T00:50:37;102589.59;;;5.36;92.45
38630;BME280;24384;51.988;4.644;2023-02-20T00:53:03;102597.59;;;5.46;91.93
38630;BME280;24384;51.988;4.644;2023-02-20T00:55:29;102587.09;;;5.44;92.15
38630;BME280;24384;51.988;4.644;2023-02-20T00:57:54;102580.16;;;5.48;92.46
38630;BME280;24384;51.988;4.644;2023-02-20T01:00:26;102581.97;;;5.52;92.09
38630;BME280;24384;51.988;4.644;2023-02-20T01:02:52;102573.22;;;5.51;92.60
38630;BME280;24384;51.988;4.644;2023-02-20T01:05:18;102567.97;;;5.50;92.89
38630;BME280;24384;51.988;4.644;2023-02-20T01:07:43;102560.09;;;5.48;93.06
38630;BME280;24384;51.988;4.644;2023-02-20T01:10:09;102558.34;;;5.46;93.03
38630;BME280;24384;51.988;4.644;2023-02-20T01:12:35;102566.22;;;5.49;93.20
38630;BME280;24384;51.988;4.644;2023-02-20T01:15:00;102558.44;;;5.52;93.31
38630;BME280;24384;51.988;4.644;2023-02-20T01:17:25;102550.53;;;5.49;93.56
38630;BME280;24384;51.988;4.644;2023-02-20T01:19:51;102556.59;;;5.48;93.50
38630;BME280;24384;51.988;4.644;2023-02-20T01:22:16;102541.69;;;5.44;93.97
38630;BME280;24384;51.988;4.644;2023-02-20T01:24:41;102543.47;;;5.45;94.36
38630;BME280;24384;51.988;4.644;2023-02-20T01:27:08;102544.53;;;5.57;94.62
38630;BME280;24384;51.988;4.644;2023-02-20T01:29:33;102552.38;;;5.57;94.45
38630;BME280;24384;51.988;4.644;2023-02-20T01:31:58;102535.84;;;5.59;94.88
38630;BME280;24384;51.988;4.644;2023-02-20T01:34:23;102516.66;;;5.60;94.89
38630;BME280;24384;51.988;4.644;2023-02-20T01:36:50;102514.03;;;5.60;95.12
38630;BME280;24384;51.988;4.644;2023-02-20T01:39:18;102520.13;;;5.59;94.88
38630;BME280;24384;51.988;4.644;2023-02-20T01:41:46;102511.44;;;5.60;95.08
38630;BME280;24384;51.988;4.644;2023-02-20T01:44:20;102502.69;;;5.61;95.16
38630;BME280;24384;51.988;4.644;2023-02-20T01:46:48;102494.06;;;5.68;95.45
38630;BME280;24384;51.988;4.644;2023-02-20T01:49:19;102487.16;;;5.73;95.49
38630;BME280;24384;51.988;4.644;2023-02-20T01:51:50;102472.38;;;5.77;95.82
38630;BME280;24384;51.988;4.644;2023-02-20T01:54:19;102480.25;;;5.78;95.72
38630;BME280;24384;51.988;4.644;2023-02-20T01:56:47;102485.56;;;5.83;95.93
38630;BME280;24384;51.988;4.644;2023-02-20T01:59:13;102484.75;;;5.88;95.48
38630;BME280;24384;51.988;4.644;2023-02-20T02:01:40;102492.63;;;5.91;95.89
38630;BME280;24384;51.988;4.644;2023-02-20T02:04:07;102470.00;;;5.94;95.97
38630;BME280;24384;51.988;4.644;2023-02-20T02:06:37;102466.59;;;6.01;95.27
38630;BME280;24384;51.988;4.644;2023-02-20T02:09:11;102473.59;;;6.00;95.70
38630;BME280;24384;51.988;4.644;2023-02-20T02:11:37;102469.22;;;6.02;95.69
38630;BME280;24384;51.988;4.644;2023-02-20T02:14:03;102460.56;;;6.06;95.28
38630;BME280;24384;51.988;4.644;2023-02-20T02:16:51;102459.72;;;6.09;95.26
38630;BME280;24384;51.988;4.644;2023-02-20T02:28:08;102441.44;;;6.14;94.93
38630;BME280;24384;51.988;4.644;2023-02-20T02:30:45;102444.94;;;6.14;94.72
38630;BME280;24384;51.988;4.644;2023-02-20T02:38:46;102440.56;;;6.15;94.75
38630;BME280;24384;51.988;4.644;2023-02-20T02:46:54;102433.63;;;6.17;94.98
38630;BME280;24384;51.988;4.644;2023-02-20T02:52:10;102444.16;;;6.23;94.44
38630;BME280;24384;51.988;4.644;2023-02-20T02:54:36;102438.09;;;6.28;94.46
38630;BME280;24384;51.988;4.644;2023-02-20T02:57:23;102433.75;;;6.29;94.08
38630;BME280;24384;51.988;4.644;2023-02-20T02:59:54;102434.59;;;6.30;94.78
38630;BME280;24384;51.988;4.644;2023-02-20T03:02:23;102434.63;;;6.31;94.70
38630;BME280;24384;51.988;4.644;2023-02-20T03:04:50;102439.91;;;6.34;94.55
38630;BME280;24384;51.988;4.644;2023-02-20T03:07:18;102436.44;;;6.37;94.40
38630;BME280;24384;51.988;4.644;2023-02-20T03:09:52;102446.94;;;6.38;94.39
38630;BME280;24384;51.988;4.644;2023-02-20T03:12:19;102422.47;;;6.39;94.44
38630;BME280;24384;51.988;4.644;2023-02-20T03:14:50;102429.53;;;6.47;94.24
38630;BME280;24384;51.988;4.644;2023-02-20T03:17:48;102425.13;;;6.44;94.24
38630;BME280;24384;51.988;4.644;2023-02-20T03:20:19;102423.41;;;6.46;94.36
38630;BME280;24384;51.988;4.644;2023-02-20T03:25:27;102420.81;;;6.48;94.05
38630;BME280;24384;51.988;4.644;2023-02-20T03:27:59;102425.22;;;6.53;94.00
38630;BME280;24384;51.988;4.644;2023-02-20T03:32:58;102425.25;;;6.58;94.17
38630;BME280;24384;51.988;4.644;2023-02-20T03:35:44;102444.56;;;6.63;94.03
38630;BME280;24384;51.988;4.644;2023-02-20T03:38:29;102430.59;;;6.67;93.74
38630;BME280;24384;51.988;4.644;2023-02-20T03:41:15;102424.50;;;6.71;93.72
38630;BME280;24384;51.988;4.644;2023-02-20T03:44:02;102414.88;;;6.72;93.53
38630;BME280;24384;51.988;4.644;2023-02-20T03:46:30;102427.16;;;6.76;93.46
38630;BME280;24384;51.988;4.644;2023-02-20T03:49:01;102425.44;;;6.79;93.50
38630;BME280;24384;51.988;4.644;2023-02-20T03:51:28;102407.06;;;6.76;93.78
38630;BME280;24384;51.988;4.644;2023-02-20T03:53:54;102398.34;;;6.80;93.46
38630;BME280;24384;51.988;4.644;2023-02-20T03:56:25;102412.34;;;6.84;93.22
38630;BME280;24384;51.988;4.644;2023-02-20T03:58:57;102405.41;;;6.85;93.02
38630;BME280;24384;51.988;4.644;2023-02-20T04:01:27;102392.25;;;6.81;93.45
38630;BME280;24384;51.988;4.644;2023-02-20T04:03:53;102396.63;;;6.84;92.88
38630;BME280;24384;51.988;4.644;2023-02-20T04:06:22;102406.28;;;6.87;92.85
38630;BME280;24384;51.988;4.644;2023-02-20T04:09:06;102394.03;;;6.87;92.48
38630;BME280;24384;51.988;4.644;2023-02-20T04:11:40;102412.41;;;6.89;92.29
38630;BME280;24384;51.988;4.644;2023-02-20T04:14:09;102401.03;;;6.88;92.45
38630;BME280;24384;51.988;4.644;2023-02-20T04:16:40;102408.97;;;6.96;92.26
38630;BME280;24384;51.988;4.644;2023-02-20T04:19:06;102406.31;;;6.94;92.33
38630;BME280;24384;51.988;4.644;2023-02-20T04:21:44;102394.97;;;6.92;92.25
38630;BME280;24384;51.988;4.644;2023-02-20T04:24:14;102396.69;;;6.92;91.85
38630;BME280;24384;51.988;4.644;2023-02-20T04:26:42;102393.22;;;6.96;91.21
38630;BME280;24384;51.988;4.644;2023-02-20T04:29:07;102401.94;;;6.92;91.55
38630;BME280;24384;51.988;4.644;2023-02-20T04:31:33;102399.31;;;6.95;91.42
38630;BME280;24384;51.988;4.644;2023-02-20T04:33:58;102396.69;;;6.95;91.40
38630;BME280;24384;51.988;4.644;2023-02-20T04:36:24;102402.88;;;7.00;90.75
38630;BME280;24384;51.988;4.644;2023-02-20T04:38:49;102390.56;;;6.93;90.96
38630;BME280;24384;51.988;4.644;2023-02-20T04:41:15;102406.34;;;6.96;90.83
38630;BME280;24384;51.988;4.644;2023-02-20T04:43:40;102404.56;;;6.95;91.04
38630;BME280;24384;51.988;4.644;2023-02-20T04:46:05;102402.81;;;6.92;90.84
38630;BME280;24384;51.988;4.644;2023-02-20T04:48:30;102409.78;;;6.92;90.63
38630;BME280;24384;51.988;4.644;2023-02-20T04:50:56;102396.66;;;6.89;90.69
38630;BME280;24384;51.988;4.644;2023-02-20T04:53:22;102410.69;;;6.91;90.61
38630;BME280;24384;51.988;4.644;2023-02-20T04:55:47;102404.53;;;6.90;90.67
38630;BME280;24384;51.988;4.644;2023-02-20T04:58:13;102404.56;;;6.92;90.66
38630;BME280;24384;51.988;4.644;2023-02-20T05:00:38;102420.25;;;6.87;90.34
38630;BME280;24384;51.988;4.644;2023-02-20T05:03:03;102426.41;;;6.91;90.24
38630;BME280;24384;51.988;4.644;2023-02-20T05:05:29;102399.28;;;6.87;90.33
38630;BME280;24384;51.988;4.644;2023-02-20T05:08:02;102394.91;;;6.86;90.29
38630;BME280;24384;51.988;4.644;2023-02-20T05:10:29;102398.41;;;6.87;89.92
38630;BME280;24384;51.988;4.644;2023-02-20T05:12:55;102395.78;;;6.85;89.98
38630;BME280;24384;51.988;4.644;2023-02-20T05:15:22;102409.78;;;6.89;90.34
38630;BME280;24384;51.988;4.644;2023-02-20T05:17:47;102413.25;;;6.85;89.91
38630;BME280;24384;51.988;4.644;2023-02-20T05:20:13;102408.91;;;6.88;90.02
38630;BME280;24384;51.988;4.644;2023-02-20T05:22:39;102415.00;;;6.87;89.92
38630;BME280;24384;51.988;4.644;2023-02-20T05:25:05;102404.50;;;6.86;90.09
38630;BME280;24384;51.988;4.644;2023-02-20T05:27:33;102418.53;;;6.88;90.47
38630;BME280;24384;51.988;4.644;2023-02-20T05:29:59;102407.13;;;6.86;90.22
38630;BME280;24384;51.988;4.644;2023-02-20T05:32:26;102415.03;;;6.89;90.09
38630;BME280;24384;51.988;4.644;2023-02-20T05:34:53;102420.22;;;6.84;90.47
38630;BME280;24384;51.988;4.644;2023-02-20T05:37:19;102412.34;;;6.82;90.57
38630;BME280;24384;51.988;4.644;2023-02-20T05:39:45;102417.59;;;6.82;90.45
38630;BME280;24384;51.988;4.644;2023-02-20T05:42:11;102412.34;;;6.82;90.27
38630;BME280;24384;51.988;4.644;2023-02-20T05:44:36;102423.72;;;6.81;90.36
38630;BME280;24384;51.988;4.644;2023-02-20T05:47:03;102416.72;;;6.82;90.26
38630;BME280;24384;51.988;4.644;2023-02-20T05:49:28;102400.97;;;6.80;90.31
38630;BME280;24384;51.988;4.644;2023-02-20T05:51:57;102407.09;;;6.81;90.00
38630;BME280;24384;51.988;4.644;2023-02-20T05:54:23;102409.75;;;6.84;90.14
38630;BME280;24384;51.988;4.644;2023-02-20T05:56:49;102412.34;;;6.82;90.40
38630;BME280;24384;51.988;4.644;2023-02-20T05:59:17;102402.78;;;6.85;90.11
38630;BME280;24384;51.988;4.644;2023-02-20T06:01:43;102414.13;;;6.84;90.23
38630;BME280;24384;51.988;4.644;2023-02-20T06:04:08;102424.59;;;6.82;90.04
38630;BME280;24384;51.988;4.644;2023-02-20T06:06:40;102412.34;;;6.81;90.28
38630;BME280;24384;51.988;4.644;2023-02-20T06:09:08;102408.84;;;6.80;90.26
38630;BME280;24384;51.988;4.644;2023-02-20T06:11:38;102406.22;;;6.80;90.08
38630;BME280;24384;51.988;4.644;2023-02-20T06:14:05;102401.84;;;6.82;90.12
38630;BME280;24384;51.988;4.644;2023-02-20T06:16:30;102407.97;;;6.78;89.99
38630;BME280;24384;51.988;4.644;2023-02-20T06:18:56;102407.06;;;6.76;90.22
38630;BME280;24384;51.988;4.644;2023-02-20T06:21:23;102399.19;;;6.75;90.17
38630;BME280;24384;51.988;4.644;2023-02-20T06:23:49;102398.31;;;6.74;90.33
38630;BME280;24384;51.988;4.644;2023-02-20T06:26:16;102400.09;;;6.75;90.50
38630;BME280;24384;51.988;4.644;2023-02-20T06:28:42;102409.66;;;6.75;90.52
38630;BME280;24384;51.988;4.644;2023-02-20T06:31:08;102407.94;;;6.74;90.60
38630;BME280;24384;51.988;4.644;2023-02-20T06:33:34;102409.69;;;6.76;90.36
38630;BME280;24384;51.988;4.644;2023-02-20T06:35:59;102407.06;;;6.76;90.59
38630;BME280;24384;51.988;4.644;2023-02-20T06:38:25;102404.44;;;6.78;90.62
38630;BME280;24384;51.988;4.644;2023-02-20T06:40:50;102414.13;;;6.85;90.45
38630;BME280;24384;51.988;4.644;2023-02-20T06:43:16;102414.97;;;6.82;90.94
38630;BME280;24384;51.988;4.644;2023-02-20T06:45:42;102415.00;;;6.87;90.58
38630;BME280;24384;51.988;4.644;2023-02-20T06:48:08;102414.97;;;6.84;90.49
38630;BME280;24384;51.988;4.644;2023-02-20T06:50:34;102415.88;;;6.85;90.61
38630;BME280;24384;51.988;4.644;2023-02-20T06:52:59;102422.88;;;6.86;90.34
38630;BME280;24384;51.988;4.644;2023-02-20T06:55:25;102421.13;;;6.85;90.59
38630;BME280;24384;51.988;4.644;2023-02-20T06:57:50;102415.88;;;6.83;90.05
38630;BME280;24384;51.988;4.644;2023-02-20T07:00:16;102413.25;;;6.83;90.40
38630;BME280;24384;51.988;4.644;2023-02-20T07:02:42;102407.09;;;6.82;90.47
38630;BME280;24384;51.988;4.644;2023-02-20T07:05:09;102414.09;;;6.82;90.69
38630;BME280;24384;51.988;4.644;2023-02-20T07:07:34;102410.63;;;6.85;90.63
38630;BME280;24384;51.988;4.644;2023-02-20T07:10:00;102420.22;;;6.81;90.56
38630;BME280;24384;51.988;4.644;2023-02-20T07:12:29;102412.41;;;6.89;90.69
38630;BME280;24384;51.988;4.644;2023-02-20T07:14:54;102417.66;;;6.90;90.51
38630;BME280;24384;51.988;4.644;2023-02-20T07:17:20;102409.78;;;6.90;90.29
38630;BME280;24384;51.988;4.644;2023-02-20T07:19:45;102416.81;;;6.91;90.13
38630;BME280;24384;51.988;4.644;2023-02-20T07:22:10;102408.94;;;6.91;90.83
38630;BME280;24384;51.988;4.644;2023-02-20T07:24:35;102404.56;;;6.92;90.58
38630;BME280;24384;51.988;4.644;2023-02-20T07:27:01;102415.06;;;6.95;90.68
38630;BME280;24384;51.988;4.644;2023-02-20T07:29:26;102415.97;;;6.97;90.68
38630;BME280;24384;51.988;4.644;2023-02-20T07:31:52;102412.50;;;7.04;90.16
38630;BME280;24384;51.988;4.644;2023-02-20T07:34:17;102412.47;;;7.01;90.85
38630;BME280;24384;51.988;4.644;2023-02-20T07:36:42;102405.53;;;7.03;90.82
38630;BME280;24384;51.988;4.644;2023-02-20T07:39:09;102422.97;;;7.01;90.65
38630;BME280;24384;51.988;4.644;2023-02-20T07:41:34;102422.13;;;7.04;90.67
38630;BME280;24384;51.988;4.644;2023-02-20T07:44:00;102419.53;;;7.08;90.26
38630;BME280;24384;51.988;4.644;2023-02-20T07:46:25;102422.19;;;7.11;90.58
38630;BME280;24384;51.988;4.644;2023-02-20T07:48:50;102420.47;;;7.16;90.35
38630;BME280;24384;51.988;4.644;2023-02-20T07:51:17;102419.63;;;7.21;90.62
38630;BME280;24384;51.988;4.644;2023-02-20T07:53:47;102424.00;;;7.22;90.34
38630;BME280;24384;51.988;4.644;2023-02-20T07:56:13;102416.13;;;7.22;90.19
38630;BME280;24384;51.988;4.644;2023-02-20T07:58:39;102423.13;;;7.24;89.99
38630;BME280;24384;51.988;4.644;2023-02-20T08:01:04;102418.81;;;7.28;90.52
38630;BME280;24384;51.988;4.644;2023-02-20T08:03:29;102419.66;;;7.27;90.68
38630;BME280;24384;51.988;4.644;2023-02-20T08:05:54;102433.63;;;7.24;90.32
38630;BME280;24384;51.988;4.644;2023-02-20T08:08:20;102427.53;;;7.30;90.14
38630;BME280;24384;51.988;4.644;2023-02-20T08:10:48;102423.16;;;7.29;90.78
38630;BME280;24384;51.988;4.644;2023-02-20T08:13:13;102418.81;;;7.32;90.27
38630;BME280;24384;51.988;4.644;2023-02-20T08:15:39;102423.19;;;7.33;90.02
38630;BME280;24384;51.988;4.644;2023-02-20T08:18:05;102434.63;;;7.40;90.26
38630;BME280;24384;51.988;4.644;2023-02-20T08:20:31;102429.38;;;7.40;90.05
38630;BME280;24384;51.988;4.644;2023-02-20T08:22:56;102433.69;;;7.35;90.33
38630;BME280;24384;51.988;4.644;2023-02-20T08:25:21;102431.97;;;7.39;90.58
38630;BME280;24384;51.988;4.644;2023-02-20T08:27:48;102423.22;;;7.40;90.07
38630;BME280;24384;51.988;4.644;2023-02-20T08:30:17;102437.25;;;7.42;90.26
38630;BME280;24384;51.988;4.644;2023-02-20T08:32:43;102436.38;;;7.47;89.87
38630;BME280;24384;51.988;4.644;2023-02-20T08:35:08;102432.84;;;7.38;90.34
38630;BME280;24384;51.988;4.644;2023-02-20T08:37:33;102431.03;;;7.30;90.70
38630;BME280;24384;51.988;4.644;2023-02-20T08:39:59;102424.06;;;7.29;90.34
38630;BME280;24384;51.988;4.644;2023-02-20T08:42:24;102424.00;;;7.22;90.73
38630;BME280;24384;51.988;4.644;2023-02-20T08:44:50;102433.59;;;7.21;90.66
38630;BME280;24384;51.988;4.644;2023-02-20T08:47:18;102427.47;;;7.17;91.12
38630;BME280;24384;51.988;4.644;2023-02-20T08:49:46;102422.19;;;7.13;91.23
38630;BME280;24384;51.988;4.644;2023-02-20T08:52:12;102421.34;;;7.14;90.82
38630;BME280;24384;51.988;4.644;2023-02-20T08:54:37;102429.25;;;7.22;90.83
38630;BME280;24384;51.988;4.644;2023-02-20T08:57:02;102417.88;;;7.21;90.70
38630;BME280;24384;51.988;4.644;2023-02-20T08:59:30;102417.88;;;7.23;91.27
38630;BME280;24384;51.988;4.644;2023-02-20T09:01:56;102413.53;;;7.25;90.32
38630;BME280;24384;51.988;4.644;2023-02-20T09:04:21;102420.53;;;7.27;90.66
38630;BME280;24384;51.988;4.644;2023-02-20T09:06:47;102406.59;;;7.38;89.84
38630;BME280;24384;51.988;4.644;2023-02-20T09:09:13;102400.50;;;7.40;90.32
38630;BME280;24384;51.988;4.644;2023-02-20T09:11:38;102406.63;;;7.45;90.04
38630;BME280;24384;51.988;4.644;2023-02-20T09:14:03;102407.53;;;7.50;89.88
38630;BME280;24384;51.988;4.644;2023-02-20T09:16:28;102394.38;;;7.49;89.67
38630;BME280;24384;51.988;4.644;2023-02-20T09:18:54;102405.84;;;7.59;89.57
38630;BME280;24384;51.988;4.644;2023-02-20T09:21:20;102402.34;;;7.66;89.01
38630;BME280;24384;51.988;4.644;2023-02-20T09:23:45;102414.59;;;7.67;89.08
38630;BME280;24384;51.988;4.644;2023-02-20T09:26:11;102407.59;;;7.69;88.53
38630;BME280;24384;51.988;4.644;2023-02-20T09:28:36;102412.88;;;7.70;88.91
38630;BME280;24384;51.988;4.644;2023-02-20T09:31:01;102423.38;;;7.69;89.02
38630;BME280;24384;51.988;4.644;2023-02-20T09:33:27;102426.00;;;7.75;88.95
38630;BME280;24384;51.988;4.644;2023-02-20T09:35:53;102434.81;;;7.77;88.55
38630;BME280;24384;51.988;4.644;2023-02-20T09:38:20;102430.44;;;7.82;87.89
38630;BME280;24384;51.988;4.644;2023-02-20T09:40:49;102407.66;;;7.84;87.87
38630;BME280;24384;51.988;4.644;2023-02-20T09:43:37;102430.41;;;7.76;88.27
38630;BME280;24384;51.988;4.644;2023-02-20T09:46:08;102431.25;;;7.74;87.82
38630;BME280;24384;51.988;4.644;2023-02-20T09:51:13;102439.09;;;7.67;88.79
38630;BME280;24384;51.988;4.644;2023-02-20T09:56:48;102433.00;;;7.68;88.47
38630;BME280;24384;51.988;4.644;2023-02-20T09:59:23;102411.13;;;7.69;88.00
38630;BME280;24384;51.988;4.644;2023-02-20T10:01:58;102421.63;;;7.69;87.87
38630;BME280;24384;51.988;4.644;2023-02-20T10:04:33;102405.88;;;7.68;88.22
38630;BME280;24384;51.988;4.644;2023-02-20T10:07:28;102412.84;;;7.69;88.36
38630;BME280;24384;51.988;4.644;2023-02-20T10:09:56;102426.88;;;7.65;88.28
38630;BME280;24384;51.988;4.644;2023-02-20T10:12:34;102421.63;;;7.68;88.79
38630;BME280;24384;51.988;4.644;2023-02-20T10:20:40;102418.09;;;7.66;88.11
38630;BME280;24384;51.988;4.644;2023-02-20T10:23:19;102416.38;;;7.68;87.45
38630;BME280;24384;51.988;4.644;2023-02-20T10:25:53;102407.59;;;7.69;88.04
38630;BME280;24384;51.988;4.644;2023-02-20T10:28:20;102416.41;;;7.74;87.85
38630;BME280;24384;51.988;4.644;2023-02-20T10:30:59;102412.00;;;7.75;87.92
38630;BME280;24384;51.988;4.644;2023-02-20T10:33:42;102409.41;;;7.76;87.29
38630;BME280;24384;51.988;4.644;2023-02-20T10:36:35;102408.53;;;7.76;87.47
38630;BME280;24384;51.988;4.644;2023-02-20T10:39:11;102409.41;;;7.82;87.25
38630;BME280;24384;51.988;4.644;2023-02-20T10:41:44;102416.44;;;7.83;87.82
38630;BME280;24384;51.988;4.644;2023-02-20T10:46:59;102392.81;;;7.89;87.25
38630;BME280;24384;51.988;4.644;2023-02-20T10:50:01;102388.44;;;7.90;87.25
38630;BME280;24384;51.988;4.644;2023-02-20T10:52:44;102400.69;;;7.91;86.93
38630;BME280;24384;51.988;4.644;2023-02-20T10:55:22;102398.97;;;8.04;87.05
38630;BME280;24384;51.988;4.644;2023-02-20T10:58:04;102421.78;;;8.16;86.20
38630;BME280;24384;51.988;4.644;2023-02-20T11:00:37;102413.88;;;8.02;86.33
38630;BME280;24384;51.988;4.644;2023-02-20T11:03:08;102405.97;;;7.96;87.30
38630;BME280;24384;51.988;4.644;2023-02-20T11:05:45;102394.56;;;7.97;86.83
38630;BME280;24384;51.988;4.644;2023-02-20T11:08:10;102392.84;;;8.05;87.40
38630;BME280;24384;51.988;4.644;2023-02-20T11:10:36;102403.34;;;7.96;86.65
38630;BME280;24384;51.988;4.644;2023-02-20T11:13:03;102412.09;;;8.02;86.85
38630;BME280;24384;51.988;4.644;2023-02-20T11:15:32;102393.72;;;8.01;86.48
38630;BME280;24384;51.988;4.644;2023-02-20T11:17:58;102398.97;;;8.04;86.15
38630;BME280;24384;51.988;4.644;2023-02-20T11:23:06;102377.09;;;8.05;86.74
38630;BME280;24384;51.988;4.644;2023-02-20T11:25:34;102374.47;;;8.06;86.63
38630;BME280;24384;51.988;4.644;2023-02-20T11:30:41;102380.59;;;8.13;86.05
38630;BME280;24384;51.988;4.644;2023-02-20T11:35:38;102370.09;;;8.18;85.91
38630;BME280;24384;51.988;4.644;2023-02-20T11:40:39;102363.09;;;8.26;86.13
38630;BME280;24384;51.988;4.644;2023-02-20T11:43:22;102370.09;;;8.39;86.38
38630;BME280;24384;51.988;4.644;2023-02-20T11:45:49;102355.19;;;8.34;85.82
38630;BME280;24384;51.988;4.644;2023-02-20T11:48:19;102361.34;;;8.27;85.59
38630;BME280;24384;51.988;4.644;2023-02-20T11:50:50;102360.47;;;8.31;85.82
38630;BME280;24384;51.988;4.644;2023-02-20T11:53:25;102337.69;;;8.25;86.13
38630;BME280;24384;51.988;4.644;2023-02-20T11:56:16;102345.56;;;8.30;86.12
38630;BME280;24384;51.988;4.644;2023-02-20T11:58:45;102340.31;;;8.34;86.45
38630;BME280;24384;51.988;4.644;2023-02-20T12:01:32;102357.81;;;8.34;85.78
38630;BME280;24384;51.988;4.644;2023-02-20T12:03:58;102361.34;;;8.39;85.89
38630;BME280;24384;51.988;4.644;2023-02-20T12:09:01;102356.09;;;8.42;86.27
38630;BME280;24384;51.988;4.644;2023-02-20T12:11:27;102342.97;;;8.54;86.46
38630;BME280;24384;51.988;4.644;2023-02-20T12:13:58;102360.50;;;8.58;85.49
38630;BME280;24384;51.988;4.644;2023-02-20T12:16:52;102365.75;;;8.65;85.69
38630;BME280;24384;51.988;4.644;2023-02-20T12:25:20;102330.69;;;8.52;85.94
38630;BME280;24384;51.988;4.644;2023-02-20T12:28:15;102351.72;;;8.63;85.17
38630;BME280;24384;51.988;4.644;2023-02-20T12:33:34;102378.91;;;8.63;84.85
38630;BME280;24384;51.988;4.644;2023-02-20T12:36:26;102359.63;;;8.49;85.71
38630;BME280;24384;51.988;4.644;2023-02-20T12:39:05;102340.31;;;8.31;85.65
38630;BME280;24384;51.988;4.644;2023-02-20T12:46:54;102340.31;;;8.34;86.28
38630;BME280;24384;51.988;4.644;2023-02-20T12:55:20;102323.69;;;8.54;85.81
38630;BME280;24384;51.988;4.644;2023-02-20T13:00:25;102345.59;;;8.68;84.90
38630;BME280;24384;51.988;4.644;2023-02-20T13:02:58;102341.19;;;8.84;84.79
38630;BME280;24384;51.988;4.644;2023-02-20T13:05:26;102353.47;;;8.84;84.28
38630;BME280;24384;51.988;4.644;2023-02-20T13:07:55;102359.63;;;8.70;84.76
38630;BME280;24384;51.988;4.644;2023-02-20T13:10:31;102357.88;;;8.58;85.35
38630;BME280;24384;51.988;4.644;2023-02-20T13:12:58;102362.25;;;8.61;85.15
38630;BME280;24384;51.988;4.644;2023-02-20T13:15:32;102364.03;;;8.57;85.13
38630;BME280;24384;51.988;4.644;2023-02-20T13:20:37;102364.88;;;8.46;85.27
38630;BME280;24384;51.988;4.644;2023-02-20T13:23:27;102351.75;;;8.44;85.26
38630;BME280;24384;51.988;4.644;2023-02-20T13:25:54;102341.19;;;8.32;85.70
38630;BME280;24384;51.988;4.644;2023-02-20T13:30:45;102330.69;;;8.36;86.07
38630;BME280;24384;51.988;4.644;2023-02-20T13:33:30;102327.19;;;8.40;86.19
38630;BME280;24384;51.988;4.644;2023-02-20T13:35:56;102319.28;;;8.42;86.31
38630;BME280;24384;51.988;4.644;2023-02-20T13:38:24;102314.94;;;8.46;86.07
38630;BME280;24384;51.988;4.644;2023-02-20T13:45:47;102312.28;;;8.27;86.01
38630;BME280;24384;51.988;4.644;2023-02-20T13:56:30;102314.03;;;8.19;86.53
38630;BME280;24384;51.988;4.644;2023-02-20T13:59:12;102314.91;;;8.22;86.11
38630;BME280;24384;51.988;4.644;2023-02-20T14:02:02;102321.91;;;8.20;86.37
38630;BME280;24384;51.988;4.644;2023-02-20T14:04:30;102324.56;;;8.27;85.92
38630;BME280;24384;51.988;4.644;2023-02-20T14:06:56;102323.66;;;8.32;85.74
38630;BME280;24384;51.988;4.644;2023-02-20T14:09:24;102313.13;;;8.31;85.56
38630;BME280;24384;51.988;4.644;2023-02-20T14:11:53;102307.88;;;8.23;86.24
38630;BME280;24384;51.988;4.644;2023-02-20T14:14:29;102284.22;;;8.20;86.13
38630;BME280;24384;51.988;4.644;2023-02-20T14:17:04;102295.63;;;8.27;85.82
38630;BME280;24384;51.988;4.644;2023-02-20T14:19:29;102300.91;;;8.16;86.29
38630;BME280;24384;51.988;4.644;2023-02-20T14:21:55;102300.91;;;8.17;86.36
38630;BME280;24384;51.988;4.644;2023-02-20T14:24:25;102293.88;;;8.15;86.08
38630;BME280;24384;51.988;4.644;2023-02-20T14:26:51;102281.59;;;8.17;86.68
38630;BME280;24384;51.988;4.644;2023-02-20T14:29:32;102285.13;;;8.08;86.42
38630;BME280;24384;51.988;4.644;2023-02-20T14:31:59;102285.13;;;8.06;86.84
38630;BME280;24384;51.988;4.644;2023-02-20T14:34:36;102292.09;;;8.01;87.03
38630;BME280;24384;51.988;4.644;2023-02-20T14:37:15;102273.72;;;8.03;86.78
38630;BME280;24384;51.988;4.644;2023-02-20T14:42:25;102250.97;;;8.08;86.62
38630;BME280;24384;51.988;4.644;2023-02-20T14:44:59;102268.47;;;8.07;86.34
38630;BME280;24384;51.988;4.644;2023-02-20T14:47:25;102248.34;;;8.10;86.78
38630;BME280;24384;51.988;4.644;2023-02-20T14:49:50;102258.84;;;8.14;85.81